Ana Sayfa
METAR-TAF:

METAR-TAF

Havaalanları :

Hearne Municipal Airport

Hearne, Teksas, Amerika Birleşik Devletleri

Enlem: 30-52-18N, Boylam: 096-37-20W, yükseklik: 87 m

Güncel hava durumu gözlemi

Rapor saat 11:15 UTC de 18 dakika önce yapıldı.
Rüzgar doğu/güneydoğudan 3 kt
Sıcaklık 22°C
Nem 100%
Basınç 1015 hPa
Görüş mesafesi: 16.1 km
Açık gökyüzü

METAR: KLHB 271115Z AUTO 12003KT 10SM CLR 22/22 A2997 RMK AO2 T02210220

Saat: 06:33 (11:33 UTC)


TAF: eksik

4.000'den fazla havaalanı için hava durumu gözlemleri ve tahminleri (METAR ve TAF raporları).

Kullanılabilir istasyonlar harita üzerinde sarı ve kırmızı noktalarla gösterilir.

İstasyonun adını görmek için fareyi noktanın üzerinde gezdirin.

Sonrasında hava gözlem ve tahminlerini görmek için tıklayın.

Haritayı değiştirmek için: yaklaştırmak için siyah artı işaretli yeşil düğmeye ve uzaklaştırmak için de eksi işaretli düğmeye hızla tıklayın; bitişik haritalar için yeşil okları kullanın.


METAR-TAF: